sensor_id;sensor_type;location;lat;lon;timestamp;P1;durP1;ratioP1;P2;durP2;ratioP2
10333;SDS011;5212;47.892;16.406;2022-12-05T00:01:23;11.87;;;8.47;;
10333;SDS011;5212;47.892;16.406;2022-12-05T00:04:00;13.47;;;10.00;;
10333;SDS011;5212;47.892;16.406;2022-12-05T00:06:28;17.33;;;10.70;;
10333;SDS011;5212;47.892;16.406;2022-12-05T00:08:59;13.87;;;9.87;;
10333;SDS011;5212;47.892;16.406;2022-12-05T00:11:27;13.03;;;9.60;;
10333;SDS011;5212;47.892;16.406;2022-12-05T00:14:00;12.90;;;9.53;;
10333;SDS011;5212;47.892;16.406;2022-12-05T00:16:29;12.03;;;8.53;;
10333;SDS011;5212;47.892;16.406;2022-12-05T00:19:05;12.47;;;9.03;;
10333;SDS011;5212;47.892;16.406;2022-12-05T00:21:34;13.53;;;9.00;;
10333;SDS011;5212;47.892;16.406;2022-12-05T00:24:11;12.33;;;8.50;;
10333;SDS011;5212;47.892;16.406;2022-12-05T00:26:42;12.33;;;8.87;;
10333;SDS011;5212;47.892;16.406;2022-12-05T00:29:09;12.03;;;8.20;;
10333;SDS011;5212;47.892;16.406;2022-12-05T00:31:38;10.90;;;7.93;;
10333;SDS011;5212;47.892;16.406;2022-12-05T00:34:06;10.40;;;7.87;;
10333;SDS011;5212;47.892;16.406;2022-12-05T00:36:36;10.43;;;7.73;;
10333;SDS011;5212;47.892;16.406;2022-12-05T00:39:07;10.93;;;7.77;;
10333;SDS011;5212;47.892;16.406;2022-12-05T00:41:35;11.47;;;8.27;;
10333;SDS011;5212;47.892;16.406;2022-12-05T00:44:02;9.20;;;7.27;;
10333;SDS011;5212;47.892;16.406;2022-12-05T00:46:36;11.13;;;8.30;;
10333;SDS011;5212;47.892;16.406;2022-12-05T00:49:06;9.90;;;7.77;;
10333;SDS011;5212;47.892;16.406;2022-12-05T00:51:34;9.67;;;7.27;;
10333;SDS011;5212;47.892;16.406;2022-12-05T00:54:09;9.87;;;6.70;;
10333;SDS011;5212;47.892;16.406;2022-12-05T00:56:37;10.30;;;7.07;;
10333;SDS011;5212;47.892;16.406;2022-12-05T00:59:04;9.10;;;6.70;;
10333;SDS011;5212;47.892;16.406;2022-12-05T01:01:34;10.03;;;7.27;;
10333;SDS011;5212;47.892;16.406;2022-12-05T01:04:06;8.87;;;6.93;;
10333;SDS011;5212;47.892;16.406;2022-12-05T01:06:34;10.03;;;7.53;;
10333;SDS011;5212;47.892;16.406;2022-12-05T01:09:02;10.83;;;7.77;;
10333;SDS011;5212;47.892;16.406;2022-12-05T01:11:31;9.37;;;7.20;;
10333;SDS011;5212;47.892;16.406;2022-12-05T01:14:03;11.20;;;7.37;;
10333;SDS011;5212;47.892;16.406;2022-12-05T01:16:30;9.87;;;7.47;;
10333;SDS011;5212;47.892;16.406;2022-12-05T01:19:06;10.03;;;6.97;;
10333;SDS011;5212;47.892;16.406;2022-12-05T01:21:36;8.97;;;6.57;;
10333;SDS011;5212;47.892;16.406;2022-12-05T01:24:04;8.77;;;6.50;;
10333;SDS011;5212;47.892;16.406;2022-12-05T01:26:31;8.80;;;5.97;;
10333;SDS011;5212;47.892;16.406;2022-12-05T01:29:12;7.03;;;5.77;;
10333;SDS011;5212;47.892;16.406;2022-12-05T01:31:48;7.97;;;5.80;;
10333;SDS011;5212;47.892;16.406;2022-12-05T01:34:18;8.10;;;5.90;;
10333;SDS011;5212;47.892;16.406;2022-12-05T01:36:44;8.77;;;6.97;;
10333;SDS011;5212;47.892;16.406;2022-12-05T01:39:11;7.47;;;5.60;;
10333;SDS011;5212;47.892;16.406;2022-12-05T01:47:43;8.00;;;6.27;;
10333;SDS011;5212;47.892;16.406;2022-12-05T01:50:19;7.60;;;5.67;;
10333;SDS011;5212;47.892;16.406;2022-12-05T01:52:54;7.17;;;5.37;;
10333;SDS011;5212;47.892;16.406;2022-12-05T01:55:33;7.87;;;6.27;;
10333;SDS011;5212;47.892;16.406;2022-12-05T01:58:00;7.53;;;5.70;;
10333;SDS011;5212;47.892;16.406;2022-12-05T02:00:29;7.90;;;5.57;;
10333;SDS011;5212;47.892;16.406;2022-12-05T02:03:16;7.40;;;6.10;;
10333;SDS011;5212;47.892;16.406;2022-12-05T02:05:57;8.70;;;6.50;;
10333;SDS011;5212;47.892;16.406;2022-12-05T02:08:26;8.10;;;5.80;;
10333;SDS011;5212;47.892;16.406;2022-12-05T02:10:59;8.67;;;6.27;;
10333;SDS011;5212;47.892;16.406;2022-12-05T02:13:44;9.43;;;7.10;;
10333;SDS011;5212;47.892;16.406;2022-12-05T02:16:31;7.67;;;6.00;;
10333;SDS011;5212;47.892;16.406;2022-12-05T02:19:18;8.90;;;6.57;;
10333;SDS011;5212;47.892;16.406;2022-12-05T02:25:17;9.50;;;6.77;;
10333;SDS011;5212;47.892;16.406;2022-12-05T02:28:06;10.73;;;7.30;;
10333;SDS011;5212;47.892;16.406;2022-12-05T02:30:42;10.67;;;6.73;;
10333;SDS011;5212;47.892;16.406;2022-12-05T02:33:16;9.17;;;6.83;;
10333;SDS011;5212;47.892;16.406;2022-12-05T02:35:53;8.30;;;6.07;;
10333;SDS011;5212;47.892;16.406;2022-12-05T02:38:30;8.67;;;6.40;;
10333;SDS011;5212;47.892;16.406;2022-12-05T02:41:05;7.63;;;5.73;;
10333;SDS011;5212;47.892;16.406;2022-12-05T02:43:48;7.47;;;5.93;;
10333;SDS011;5212;47.892;16.406;2022-12-05T02:46:36;8.20;;;6.30;;
10333;SDS011;5212;47.892;16.406;2022-12-05T02:49:07;8.27;;;6.07;;
10333;SDS011;5212;47.892;16.406;2022-12-05T02:51:51;7.47;;;6.03;;
10333;SDS011;5212;47.892;16.406;2022-12-05T02:54:25;9.67;;;6.13;;
10333;SDS011;5212;47.892;16.406;2022-12-05T02:56:56;7.50;;;5.63;;
10333;SDS011;5212;47.892;16.406;2022-12-05T02:59:35;7.67;;;5.63;;
10333;SDS011;5212;47.892;16.406;2022-12-05T03:02:02;7.77;;;5.67;;
10333;SDS011;5212;47.892;16.406;2022-12-05T03:04:29;7.80;;;5.77;;
10333;SDS011;5212;47.892;16.406;2022-12-05T03:07:05;7.60;;;5.57;;
10333;SDS011;5212;47.892;16.406;2022-12-05T03:09:32;6.87;;;5.40;;
10333;SDS011;5212;47.892;16.406;2022-12-05T03:12:02;6.70;;;5.37;;
10333;SDS011;5212;47.892;16.406;2022-12-05T03:14:35;7.60;;;5.70;;
10333;SDS011;5212;47.892;16.406;2022-12-05T03:17:21;8.03;;;6.10;;
10333;SDS011;5212;47.892;16.406;2022-12-05T03:19:58;7.53;;;6.10;;
10333;SDS011;5212;47.892;16.406;2022-12-05T03:22:36;8.73;;;6.20;;
10333;SDS011;5212;47.892;16.406;2022-12-05T03:25:07;8.90;;;6.43;;
10333;SDS011;5212;47.892;16.406;2022-12-05T03:27:44;8.50;;;6.50;;
10333;SDS011;5212;47.892;16.406;2022-12-05T03:30:20;8.90;;;6.57;;
10333;SDS011;5212;47.892;16.406;2022-12-05T03:33:01;8.23;;;6.50;;
10333;SDS011;5212;47.892;16.406;2022-12-05T03:35:36;9.70;;;6.33;;
10333;SDS011;5212;47.892;16.406;2022-12-05T03:38:07;9.07;;;6.80;;
10333;SDS011;5212;47.892;16.406;2022-12-05T03:40:48;9.23;;;6.80;;
10333;SDS011;5212;47.892;16.406;2022-12-05T03:43:21;9.47;;;6.67;;
10333;SDS011;5212;47.892;16.406;2022-12-05T03:45:53;9.10;;;6.73;;
10333;SDS011;5212;47.892;16.406;2022-12-05T03:48:34;11.13;;;7.20;;
10333;SDS011;5212;47.892;16.406;2022-12-05T03:51:20;8.80;;;6.60;;
10333;SDS011;5212;47.892;16.406;2022-12-05T03:53:56;8.47;;;6.23;;
10333;SDS011;5212;47.892;16.406;2022-12-05T03:56:43;7.90;;;6.50;;
10333;SDS011;5212;47.892;16.406;2022-12-05T03:59:15;9.67;;;6.93;;
10333;SDS011;5212;47.892;16.406;2022-12-05T04:01:53;10.23;;;6.57;;
10333;SDS011;5212;47.892;16.406;2022-12-05T04:04:23;8.53;;;6.47;;
10333;SDS011;5212;47.892;16.406;2022-12-05T04:06:54;8.77;;;6.47;;
10333;SDS011;5212;47.892;16.406;2022-12-05T04:09:25;10.10;;;7.43;;
10333;SDS011;5212;47.892;16.406;2022-12-05T05:50:16;12.20;;;8.67;;
10333;SDS011;5212;47.892;16.406;2022-12-05T05:52:43;12.27;;;8.80;;
10333;SDS011;5212;47.892;16.406;2022-12-05T05:55:09;15.23;;;10.00;;
10333;SDS011;5212;47.892;16.406;2022-12-05T05:57:37;13.53;;;9.70;;
10333;SDS011;5212;47.892;16.406;2022-12-05T06:00:04;11.03;;;7.87;;
10333;SDS011;5212;47.892;16.406;2022-12-05T06:02:32;12.67;;;8.87;;
10333;SDS011;5212;47.892;16.406;2022-12-05T06:04:59;13.53;;;9.53;;
10333;SDS011;5212;47.892;16.406;2022-12-05T06:07:26;13.50;;;9.50;;
10333;SDS011;5212;47.892;16.406;2022-12-05T06:09:52;14.67;;;9.57;;
10333;SDS011;5212;47.892;16.406;2022-12-05T06:12:21;12.80;;;9.10;;
10333;SDS011;5212;47.892;16.406;2022-12-05T06:14:47;12.70;;;8.60;;
10333;SDS011;5212;47.892;16.406;2022-12-05T06:17:13;11.57;;;8.23;;
10333;SDS011;5212;47.892;16.406;2022-12-05T06:19:40;13.77;;;8.47;;
10333;SDS011;5212;47.892;16.406;2022-12-05T06:22:06;11.93;;;8.03;;
10333;SDS011;5212;47.892;16.406;2022-12-05T06:24:34;11.77;;;8.57;;
10333;SDS011;5212;47.892;16.406;2022-12-05T06:27:00;11.60;;;8.03;;
10333;SDS011;5212;47.892;16.406;2022-12-05T06:29:27;13.37;;;9.60;;
10333;SDS011;5212;47.892;16.406;2022-12-05T06:31:53;14.00;;;9.03;;
10333;SDS011;5212;47.892;16.406;2022-12-05T06:34:19;12.20;;;8.43;;
10333;SDS011;5212;47.892;16.406;2022-12-05T06:36:45;11.87;;;8.37;;
10333;SDS011;5212;47.892;16.406;2022-12-05T06:39:12;11.67;;;8.03;;
10333;SDS011;5212;47.892;16.406;2022-12-05T06:41:39;10.83;;;7.77;;
10333;SDS011;5212;47.892;16.406;2022-12-05T06:44:05;10.23;;;7.60;;
10333;SDS011;5212;47.892;16.406;2022-12-05T06:46:34;10.70;;;8.47;;
10333;SDS011;5212;47.892;16.406;2022-12-05T06:49:00;11.73;;;7.97;;
10333;SDS011;5212;47.892;16.406;2022-12-05T06:51:26;26.20;;;15.23;;
10333;SDS011;5212;47.892;16.406;2022-12-05T06:53:53;23.00;;;14.40;;
10333;SDS011;5212;47.892;16.406;2022-12-05T06:56:20;19.53;;;12.10;;
10333;SDS011;5212;47.892;16.406;2022-12-05T06:58:48;14.63;;;9.83;;
10333;SDS011;5212;47.892;16.406;2022-12-05T07:01:17;16.37;;;11.47;;
10333;SDS011;5212;47.892;16.406;2022-12-05T07:04:03;24.00;;;15.63;;
10333;SDS011;5212;47.892;16.406;2022-12-05T07:06:35;23.70;;;15.07;;
10333;SDS011;5212;47.892;16.406;2022-12-05T07:09:02;20.37;;;12.97;;
10333;SDS011;5212;47.892;16.406;2022-12-05T07:11:29;18.73;;;12.80;;
10333;SDS011;5212;47.892;16.406;2022-12-05T07:13:56;21.27;;;13.07;;
10333;SDS011;5212;47.892;16.406;2022-12-05T07:16:22;17.67;;;11.67;;
10333;SDS011;5212;47.892;16.406;2022-12-05T07:18:49;20.27;;;12.20;;
10333;SDS011;5212;47.892;16.406;2022-12-05T07:21:15;18.23;;;11.90;;
10333;SDS011;5212;47.892;16.406;2022-12-05T07:23:42;21.73;;;12.60;;
10333;SDS011;5212;47.892;16.406;2022-12-05T07:26:11;18.13;;;11.83;;
10333;SDS011;5212;47.892;16.406;2022-12-05T07:28:39;20.90;;;12.50;;
10333;SDS011;5212;47.892;16.406;2022-12-05T07:31:07;18.30;;;11.80;;
10333;SDS011;5212;47.892;16.406;2022-12-05T07:33:35;18.90;;;12.20;;
10333;SDS011;5212;47.892;16.406;2022-12-05T07:36:03;21.00;;;12.37;;
10333;SDS011;5212;47.892;16.406;2022-12-05T07:38:30;28.80;;;17.53;;
10333;SDS011;5212;47.892;16.406;2022-12-05T07:40:57;32.83;;;20.33;;
10333;SDS011;5212;47.892;16.406;2022-12-05T07:43:25;27.00;;;16.57;;
10333;SDS011;5212;47.892;16.406;2022-12-05T07:45:51;21.43;;;14.23;;
10333;SDS011;5212;47.892;16.406;2022-12-05T07:48:19;19.27;;;12.43;;
10333;SDS011;5212;47.892;16.406;2022-12-05T07:50:46;21.13;;;13.57;;
10333;SDS011;5212;47.892;16.406;2022-12-05T07:53:12;22.80;;;14.43;;
10333;SDS011;5212;47.892;16.406;2022-12-05T07:55:38;22.57;;;13.77;;
10333;SDS011;5212;47.892;16.406;2022-12-05T07:58:04;19.60;;;12.93;;
10333;SDS011;5212;47.892;16.406;2022-12-05T08:00:31;22.53;;;14.60;;
10333;SDS011;5212;47.892;16.406;2022-12-05T08:02:57;20.07;;;13.37;;
10333;SDS011;5212;47.892;16.406;2022-12-05T08:05:24;19.40;;;12.73;;
10333;SDS011;5212;47.892;16.406;2022-12-05T08:07:51;22.10;;;14.20;;
10333;SDS011;5212;47.892;16.406;2022-12-05T08:10:17;22.03;;;13.83;;
10333;SDS011;5212;47.892;16.406;2022-12-05T08:12:44;24.17;;;14.37;;
10333;SDS011;5212;47.892;16.406;2022-12-05T08:15:10;22.60;;;13.93;;
10333;SDS011;5212;47.892;16.406;2022-12-05T08:17:36;18.17;;;13.20;;
10333;SDS011;5212;47.892;16.406;2022-12-05T08:20:03;19.40;;;11.90;;
10333;SDS011;5212;47.892;16.406;2022-12-05T08:22:31;16.53;;;11.37;;
10333;SDS011;5212;47.892;16.406;2022-12-05T08:24:58;61.80;;;39.00;;
10333;SDS011;5212;47.892;16.406;2022-12-05T08:27:24;35.43;;;23.53;;
10333;SDS011;5212;47.892;16.406;2022-12-05T08:29:52;20.00;;;12.63;;
10333;SDS011;5212;47.892;16.406;2022-12-05T08:32:21;21.30;;;12.40;;
10333;SDS011;5212;47.892;16.406;2022-12-05T08:34:47;16.77;;;11.03;;
10333;SDS011;5212;47.892;16.406;2022-12-05T08:37:14;17.63;;;11.83;;
10333;SDS011;5212;47.892;16.406;2022-12-05T08:39:43;19.53;;;12.90;;
10333;SDS011;5212;47.892;16.406;2022-12-05T08:42:09;20.57;;;12.67;;
10333;SDS011;5212;47.892;16.406;2022-12-05T08:44:35;21.00;;;11.97;;
10333;SDS011;5212;47.892;16.406;2022-12-05T08:47:02;17.63;;;10.40;;
10333;SDS011;5212;47.892;16.406;2022-12-05T08:49:28;16.57;;;10.80;;
10333;SDS011;5212;47.892;16.406;2022-12-05T08:51:57;21.37;;;11.37;;
10333;SDS011;5212;47.892;16.406;2022-12-05T08:54:23;20.40;;;13.73;;
10333;SDS011;5212;47.892;16.406;2022-12-05T08:56:50;22.77;;;13.37;;
10333;SDS011;5212;47.892;16.406;2022-12-05T08:59:17;25.53;;;13.93;;
10333;SDS011;5212;47.892;16.406;2022-12-05T09:01:44;21.17;;;12.77;;
10333;SDS011;5212;47.892;16.406;2022-12-05T09:04:10;17.00;;;12.10;;
10333;SDS011;5212;47.892;16.406;2022-12-05T09:06:37;19.33;;;11.60;;
10333;SDS011;5212;47.892;16.406;2022-12-05T09:09:05;18.93;;;12.00;;
10333;SDS011;5212;47.892;16.406;2022-12-05T09:11:33;18.30;;;12.07;;
10333;SDS011;5212;47.892;16.406;2022-12-05T09:14:02;19.43;;;12.63;;
10333;SDS011;5212;47.892;16.406;2022-12-05T09:16:30;16.00;;;11.13;;
10333;SDS011;5212;47.892;16.406;2022-12-05T09:18:57;16.10;;;10.70;;
10333;SDS011;5212;47.892;16.406;2022-12-05T09:21:24;15.33;;;10.47;;
10333;SDS011;5212;47.892;16.406;2022-12-05T09:23:51;14.27;;;9.93;;
10333;SDS011;5212;47.892;16.406;2022-12-05T09:26:18;15.23;;;10.80;;
10333;SDS011;5212;47.892;16.406;2022-12-05T09:28:45;18.33;;;11.87;;
10333;SDS011;5212;47.892;16.406;2022-12-05T09:31:13;16.07;;;11.60;;
10333;SDS011;5212;47.892;16.406;2022-12-05T09:33:40;15.73;;;11.33;;
10333;SDS011;5212;47.892;16.406;2022-12-05T09:36:08;15.00;;;10.67;;
10333;SDS011;5212;47.892;16.406;2022-12-05T09:38:42;16.90;;;11.13;;
10333;SDS011;5212;47.892;16.406;2022-12-05T09:41:11;15.50;;;11.37;;
10333;SDS011;5212;47.892;16.406;2022-12-05T09:44:11;15.73;;;10.97;;
10333;SDS011;5212;47.892;16.406;2022-12-05T09:46:42;15.93;;;10.77;;
10333;SDS011;5212;47.892;16.406;2022-12-05T09:49:15;16.13;;;10.97;;
10333;SDS011;5212;47.892;16.406;2022-12-05T09:51:42;15.90;;;11.47;;
10333;SDS011;5212;47.892;16.406;2022-12-05T09:54:09;14.27;;;10.23;;
10333;SDS011;5212;47.892;16.406;2022-12-05T09:56:36;16.17;;;11.00;;
10333;SDS011;5212;47.892;16.406;2022-12-05T09:59:03;16.37;;;11.20;;
10333;SDS011;5212;47.892;16.406;2022-12-05T10:01:32;17.43;;;11.90;;
10333;SDS011;5212;47.892;16.406;2022-12-05T10:07:00;17.00;;;10.90;;
10333;SDS011;5212;47.892;16.406;2022-12-05T10:09:43;16.43;;;11.40;;
10333;SDS011;5212;47.892;16.406;2022-12-05T10:12:28;17.77;;;11.90;;
10333;SDS011;5212;47.892;16.406;2022-12-05T10:15:11;18.60;;;12.70;;
10333;SDS011;5212;47.892;16.406;2022-12-05T10:17:39;22.47;;;13.27;;
10333;SDS011;5212;47.892;16.406;2022-12-05T10:20:09;20.80;;;13.07;;
10333;SDS011;5212;47.892;16.406;2022-12-05T10:22:42;18.87;;;12.50;;
10333;SDS011;5212;47.892;16.406;2022-12-05T10:25:19;20.57;;;13.03;;
10333;SDS011;5212;47.892;16.406;2022-12-05T10:27:48;16.77;;;11.20;;
10333;SDS011;5212;47.892;16.406;2022-12-05T10:30:16;17.33;;;11.10;;
10333;SDS011;5212;47.892;16.406;2022-12-05T10:32:50;18.30;;;11.83;;
10333;SDS011;5212;47.892;16.406;2022-12-05T10:35:20;15.70;;;10.73;;
10333;SDS011;5212;47.892;16.406;2022-12-05T10:37:47;16.40;;;10.80;;
10333;SDS011;5212;47.892;16.406;2022-12-05T10:40:19;16.00;;;11.00;;
10333;SDS011;5212;47.892;16.406;2022-12-05T10:42:45;19.23;;;12.33;;
10333;SDS011;5212;47.892;16.406;2022-12-05T10:45:15;19.77;;;12.73;;
10333;SDS011;5212;47.892;16.406;2022-12-05T10:47:46;17.30;;;10.70;;
10333;SDS011;5212;47.892;16.406;2022-12-05T10:50:21;19.00;;;12.77;;
10333;SDS011;5212;47.892;16.406;2022-12-05T10:52:50;21.87;;;13.50;;
10333;SDS011;5212;47.892;16.406;2022-12-05T10:55:17;23.20;;;14.73;;
10333;SDS011;5212;47.892;16.406;2022-12-05T10:57:46;24.63;;;14.93;;
10333;SDS011;5212;47.892;16.406;2022-12-05T11:00:17;22.00;;;13.77;;
10333;SDS011;5212;47.892;16.406;2022-12-05T11:02:46;20.67;;;13.10;;
10333;SDS011;5212;47.892;16.406;2022-12-05T11:05:13;34.07;;;19.53;;
10333;SDS011;5212;47.892;16.406;2022-12-05T11:07:45;22.87;;;13.93;;
10333;SDS011;5212;47.892;16.406;2022-12-05T11:10:17;20.53;;;12.60;;
10333;SDS011;5212;47.892;16.406;2022-12-05T11:12:46;18.47;;;13.00;;
10333;SDS011;5212;47.892;16.406;2022-12-05T11:15:18;31.80;;;20.27;;
10333;SDS011;5212;47.892;16.406;2022-12-05T11:17:47;22.10;;;14.57;;
10333;SDS011;5212;47.892;16.406;2022-12-05T11:23:14;17.97;;;12.03;;
10333;SDS011;5212;47.892;16.406;2022-12-05T11:25:42;17.80;;;11.37;;
10333;SDS011;5212;47.892;16.406;2022-12-05T11:28:21;14.90;;;9.93;;
10333;SDS011;5212;47.892;16.406;2022-12-05T11:30:54;17.80;;;12.23;;
10333;SDS011;5212;47.892;16.406;2022-12-05T11:33:22;26.47;;;18.13;;
10333;SDS011;5212;47.892;16.406;2022-12-05T11:35:53;27.60;;;18.00;;
10333;SDS011;5212;47.892;16.406;2022-12-05T11:38:24;33.40;;;20.40;;
10333;SDS011;5212;47.892;16.406;2022-12-05T11:40:53;37.63;;;23.03;;
10333;SDS011;5212;47.892;16.406;2022-12-05T11:46:09;67.60;;;38.63;;
10333;SDS011;5212;47.892;16.406;2022-12-05T11:48:48;22.90;;;15.40;;
10333;SDS011;5212;47.892;16.406;2022-12-05T11:51:32;18.63;;;12.70;;
10333;SDS011;5212;47.892;16.406;2022-12-05T11:56:49;18.53;;;11.80;;
10333;SDS011;5212;47.892;16.406;2022-12-05T11:59:23;18.30;;;12.47;;
10333;SDS011;5212;47.892;16.406;2022-12-05T12:01:57;18.80;;;12.70;;
10333;SDS011;5212;47.892;16.406;2022-12-05T12:04:40;21.43;;;14.80;;
10333;SDS011;5212;47.892;16.406;2022-12-05T12:07:20;24.47;;;14.83;;
10333;SDS011;5212;47.892;16.406;2022-12-05T12:09:55;20.80;;;13.13;;
10333;SDS011;5212;47.892;16.406;2022-12-05T12:12:27;21.20;;;13.83;;
10333;SDS011;5212;47.892;16.406;2022-12-05T12:14:59;20.20;;;13.50;;
10333;SDS011;5212;47.892;16.406;2022-12-05T12:17:33;22.37;;;14.17;;
10333;SDS011;5212;47.892;16.406;2022-12-05T12:20:14;19.67;;;13.30;;
10333;SDS011;5212;47.892;16.406;2022-12-05T12:23:00;20.13;;;13.53;;
10333;SDS011;5212;47.892;16.406;2022-12-05T12:25:41;22.03;;;14.00;;
10333;SDS011;5212;47.892;16.406;2022-12-05T12:28:17;17.77;;;13.03;;
10333;SDS011;5212;47.892;16.406;2022-12-05T12:30:54;18.17;;;11.80;;
10333;SDS011;5212;47.892;16.406;2022-12-05T12:33:28;15.47;;;11.27;;
10333;SDS011;5212;47.892;16.406;2022-12-05T12:35:59;20.77;;;13.27;;
10333;SDS011;5212;47.892;16.406;2022-12-05T12:41:24;19.40;;;12.13;;
10333;SDS011;5212;47.892;16.406;2022-12-05T12:44:15;15.63;;;10.63;;
10333;SDS011;5212;47.892;16.406;2022-12-05T12:46:54;17.80;;;11.40;;
10333;SDS011;5212;47.892;16.406;2022-12-05T12:49:26;18.70;;;11.90;;
10333;SDS011;5212;47.892;16.406;2022-12-05T12:52:01;15.83;;;10.97;;
10333;SDS011;5212;47.892;16.406;2022-12-05T12:54:33;17.70;;;11.20;;
10333;SDS011;5212;47.892;16.406;2022-12-05T12:57:07;16.30;;;11.00;;
10333;SDS011;5212;47.892;16.406;2022-12-05T12:59:46;16.63;;;11.40;;
10333;SDS011;5212;47.892;16.406;2022-12-05T13:02:19;17.03;;;10.90;;
10333;SDS011;5212;47.892;16.406;2022-12-05T13:04:51;18.13;;;11.40;;
10333;SDS011;5212;47.892;16.406;2022-12-05T13:07:20;16.63;;;11.40;;
10333;SDS011;5212;47.892;16.406;2022-12-05T13:09:51;16.37;;;11.27;;
10333;SDS011;5212;47.892;16.406;2022-12-05T13:12:20;17.17;;;11.60;;
10333;SDS011;5212;47.892;16.406;2022-12-05T13:14:49;16.40;;;11.53;;
10333;SDS011;5212;47.892;16.406;2022-12-05T13:17:18;16.43;;;11.33;;
10333;SDS011;5212;47.892;16.406;2022-12-05T13:19:47;16.27;;;11.27;;
10333;SDS011;5212;47.892;16.406;2022-12-05T13:22:14;18.10;;;12.20;;
10333;SDS011;5212;47.892;16.406;2022-12-05T13:24:42;19.43;;;12.00;;
10333;SDS011;5212;47.892;16.406;2022-12-05T13:27:13;19.40;;;12.87;;
10333;SDS011;5212;47.892;16.406;2022-12-05T13:29:41;23.13;;;14.77;;
10333;SDS011;5212;47.892;16.406;2022-12-05T13:32:22;17.43;;;12.07;;
10333;SDS011;5212;47.892;16.406;2022-12-05T13:34:51;22.10;;;14.40;;
10333;SDS011;5212;47.892;16.406;2022-12-05T13:37:22;24.40;;;15.93;;
10333;SDS011;5212;47.892;16.406;2022-12-05T13:40:18;22.73;;;14.47;;
10333;SDS011;5212;47.892;16.406;2022-12-05T13:43:08;21.33;;;13.20;;
10333;SDS011;5212;47.892;16.406;2022-12-05T13:45:37;18.70;;;12.40;;
10333;SDS011;5212;47.892;16.406;2022-12-05T13:48:11;18.70;;;12.63;;
10333;SDS011;5212;47.892;16.406;2022-12-05T13:50:41;19.10;;;13.00;;
10333;SDS011;5212;47.892;16.406;2022-12-05T13:53:22;19.67;;;12.97;;
10333;SDS011;5212;47.892;16.406;2022-12-05T13:55:56;24.10;;;14.70;;
10333;SDS011;5212;47.892;16.406;2022-12-05T14:07:11;19.53;;;13.40;;
10333;SDS011;5212;47.892;16.406;2022-12-05T14:10:07;18.80;;;12.27;;
10333;SDS011;5212;47.892;16.406;2022-12-05T14:12:51;20.93;;;12.87;;
10333;SDS011;5212;47.892;16.406;2022-12-05T14:15:29;18.93;;;12.60;;
10333;SDS011;5212;47.892;16.406;2022-12-05T14:18:14;17.43;;;12.20;;
10333;SDS011;5212;47.892;16.406;2022-12-05T14:20:46;20.27;;;13.37;;
10333;SDS011;5212;47.892;16.406;2022-12-05T14:23:18;20.53;;;13.47;;
10333;SDS011;5212;47.892;16.406;2022-12-05T14:26:19;19.37;;;12.50;;
10333;SDS011;5212;47.892;16.406;2022-12-05T14:29:12;17.50;;;12.13;;
10333;SDS011;5212;47.892;16.406;2022-12-05T14:31:50;16.93;;;11.67;;
10333;SDS011;5212;47.892;16.406;2022-12-05T14:34:26;20.30;;;12.00;;
10333;SDS011;5212;47.892;16.406;2022-12-05T14:36:55;22.00;;;14.23;;
10333;SDS011;5212;47.892;16.406;2022-12-05T14:39:28;23.13;;;15.33;;
10333;SDS011;5212;47.892;16.406;2022-12-05T14:41:57;20.73;;;13.80;;
10333;SDS011;5212;47.892;16.406;2022-12-05T14:44:24;19.40;;;12.70;;
10333;SDS011;5212;47.892;16.406;2022-12-05T14:46:56;21.03;;;13.63;;
10333;SDS011;5212;47.892;16.406;2022-12-05T14:49:50;19.97;;;13.30;;
10333;SDS011;5212;47.892;16.406;2022-12-05T14:52:19;18.43;;;12.77;;
10333;SDS011;5212;47.892;16.406;2022-12-05T14:54:46;20.83;;;12.50;;
10333;SDS011;5212;47.892;16.406;2022-12-05T14:57:14;22.57;;;14.33;;
10333;SDS011;5212;47.892;16.406;2022-12-05T14:59:43;24.27;;;15.87;;
10333;SDS011;5212;47.892;16.406;2022-12-05T15:02:14;24.70;;;15.97;;
10333;SDS011;5212;47.892;16.406;2022-12-05T15:04:45;33.83;;;19.17;;
10333;SDS011;5212;47.892;16.406;2022-12-05T15:07:17;25.63;;;16.10;;
10333;SDS011;5212;47.892;16.406;2022-12-05T15:09:49;26.80;;;14.93;;
10333;SDS011;5212;47.892;16.406;2022-12-05T15:12:22;20.77;;;13.53;;
10333;SDS011;5212;47.892;16.406;2022-12-05T15:14:53;22.27;;;14.37;;
10333;SDS011;5212;47.892;16.406;2022-12-05T15:17:26;29.87;;;18.57;;
10333;SDS011;5212;47.892;16.406;2022-12-05T15:19:58;22.83;;;15.03;;
10333;SDS011;5212;47.892;16.406;2022-12-05T15:22:29;24.77;;;15.47;;
10333;SDS011;5212;47.892;16.406;2022-12-05T15:25:12;25.77;;;15.73;;
10333;SDS011;5212;47.892;16.406;2022-12-05T15:27:51;28.77;;;16.43;;
10333;SDS011;5212;47.892;16.406;2022-12-05T15:30:18;26.13;;;15.87;;
10333;SDS011;5212;47.892;16.406;2022-12-05T15:32:44;23.63;;;15.30;;
10333;SDS011;5212;47.892;16.406;2022-12-05T15:35:12;22.73;;;14.27;;
10333;SDS011;5212;47.892;16.406;2022-12-05T15:37:42;27.33;;;16.17;;
10333;SDS011;5212;47.892;16.406;2022-12-05T15:40:12;29.17;;;17.90;;
10333;SDS011;5212;47.892;16.406;2022-12-05T15:42:42;26.47;;;17.10;;
10333;SDS011;5212;47.892;16.406;2022-12-05T15:45:17;28.70;;;17.10;;
10333;SDS011;5212;47.892;16.406;2022-12-05T15:47:47;28.93;;;17.53;;
10333;SDS011;5212;47.892;16.406;2022-12-05T15:50:16;27.33;;;16.10;;
10333;SDS011;5212;47.892;16.406;2022-12-05T15:52:46;25.67;;;16.33;;
10333;SDS011;5212;47.892;16.406;2022-12-05T15:55:15;20.07;;;13.33;;
10333;SDS011;5212;47.892;16.406;2022-12-05T15:57:45;17.80;;;11.87;;
10333;SDS011;5212;47.892;16.406;2022-12-05T16:00:13;12.93;;;9.17;;
10333;SDS011;5212;47.892;16.406;2022-12-05T16:02:42;13.83;;;9.40;;
10333;SDS011;5212;47.892;16.406;2022-12-05T16:05:19;13.73;;;9.97;;
10333;SDS011;5212;47.892;16.406;2022-12-05T16:07:47;13.30;;;9.27;;
10333;SDS011;5212;47.892;16.406;2022-12-05T16:10:14;11.97;;;8.97;;
10333;SDS011;5212;47.892;16.406;2022-12-05T16:12:41;12.43;;;9.23;;
10333;SDS011;5212;47.892;16.406;2022-12-05T16:15:10;13.43;;;9.40;;
10333;SDS011;5212;47.892;16.406;2022-12-05T16:17:39;16.10;;;11.10;;
10333;SDS011;5212;47.892;16.406;2022-12-05T16:20:11;15.23;;;10.03;;
10333;SDS011;5212;47.892;16.406;2022-12-05T16:22:48;17.63;;;10.90;;
10333;SDS011;5212;47.892;16.406;2022-12-05T16:25:16;17.60;;;11.00;;
10333;SDS011;5212;47.892;16.406;2022-12-05T16:27:54;13.70;;;9.60;;
10333;SDS011;5212;47.892;16.406;2022-12-05T16:30:25;15.53;;;10.03;;
10333;SDS011;5212;47.892;16.406;2022-12-05T16:32:57;13.23;;;9.70;;
10333;SDS011;5212;47.892;16.406;2022-12-05T16:35:29;20.27;;;12.53;;
10333;SDS011;5212;47.892;16.406;2022-12-05T16:38:04;17.77;;;11.97;;
10333;SDS011;5212;47.892;16.406;2022-12-05T16:40:33;19.27;;;12.27;;
10333;SDS011;5212;47.892;16.406;2022-12-05T16:43:00;16.70;;;11.57;;
10333;SDS011;5212;47.892;16.406;2022-12-05T16:45:36;25.00;;;14.57;;
10333;SDS011;5212;47.892;16.406;2022-12-05T16:48:12;18.37;;;11.57;;
10333;SDS011;5212;47.892;16.406;2022-12-05T16:50:42;15.37;;;10.70;;
10333;SDS011;5212;47.892;16.406;2022-12-05T16:53:14;14.00;;;10.43;;
10333;SDS011;5212;47.892;16.406;2022-12-05T16:55:44;28.90;;;18.27;;
10333;SDS011;5212;47.892;16.406;2022-12-05T16:58:19;36.20;;;21.83;;
10333;SDS011;5212;47.892;16.406;2022-12-05T17:00:46;56.17;;;29.13;;
10333;SDS011;5212;47.892;16.406;2022-12-05T17:03:13;50.10;;;26.57;;
10333;SDS011;5212;47.892;16.406;2022-12-05T17:05:42;42.17;;;21.53;;